Time;durP1;ratioP1;P1;durP2;ratioP2;P2;SDS_P1;SDS_P2;PMS_P1;PMS_P2;Temp;Humidity;BMP_temperature;BMP_pressure;BME280_temperature;BME280_humidity;BME280_pressure;Samples;Min_cycle;Max_cycle;Signal;HPM_P1;HPM_P2
2023/08/28 00:01:55;;;;;;;1.85;1.58;;;;;;;17.98;100.00;95615.13;6278580;22;20172;-87
2023/08/28 00:04:21;;;;;;;1.58;1.48;;;;;;;17.94;100.00;95614.75;6276331;22;20180;-88
2023/08/28 00:06:49;;;;;;;1.70;1.60;;;;;;;17.95;100.00;95611.13;6278011;22;20179;-86
2023/08/28 00:09:15;;;;;;;1.58;1.48;;;;;;;17.87;100.00;95601.03;6278634;22;20198;-88
2023/08/28 00:11:42;;;;;;;1.88;1.50;;;;;;;17.86;100.00;95612.47;6278987;22;20203;-87
2023/08/28 00:14:08;;;;;;;1.70;1.60;;;;;;;17.92;100.00;95595.94;6279404;22;20183;-86
2023/08/28 00:16:34;;;;;;;2.45;2.22;;;;;;;17.96;100.00;95584.06;6278246;22;20179;-88
2023/08/28 00:19:01;;;;;;;1.63;1.52;;;;;;;17.91;100.00;95569.09;6277863;22;20196;-87
2023/08/28 00:21:27;;;;;;;1.60;1.50;;;;;;;17.95;100.00;95565.03;6277079;22;20202;-87
2023/08/28 00:23:55;;;;;;;2.30;1.42;;;;;;;17.83;100.00;95569.44;6278453;22;20176;-87
2023/08/28 00:26:21;;;;;;;1.90;1.80;;;;;;;17.83;100.00;95576.44;6278159;22;20172;-86
2023/08/28 00:28:48;;;;;;;3.03;1.60;;;;;;;17.85;100.00;95569.22;6277359;22;20196;-86
2023/08/28 00:31:14;;;;;;;1.65;1.55;;;;;;;17.82;100.00;95541.78;6277848;22;20608;-87
2023/08/28 00:33:41;;;;;;;1.70;1.60;;;;;;;17.76;100.00;95541.88;6276247;22;20177;-86
2023/08/28 00:36:07;;;;;;;2.25;1.80;;;;;;;17.79;100.00;95544.03;6277144;22;20187;-86
2023/08/28 00:38:33;;;;;;;1.77;1.45;;;;;;;17.82;100.00;95538.41;6277322;22;20427;-87
2023/08/28 00:41:01;;;;;;;3.17;1.60;;;;;;;17.83;100.00;95551.19;6278295;22;20176;-87
2023/08/28 00:43:29;;;;;;;3.00;1.60;;;;;;;17.86;100.00;95531.72;6277772;22;20183;-88
2023/08/28 00:45:56;;;;;;;2.25;1.50;;;;;;;17.88;100.00;95547.94;6278300;22;20180;-87
2023/08/28 00:48:23;;;;;;;3.28;1.40;;;;;;;17.90;100.00;95551.09;6277991;22;20192;-86
2023/08/28 00:50:50;;;;;;;1.70;1.60;;;;;;;17.93;100.00;95558.47;6277371;22;20191;-86
2023/08/28 00:53:17;;;;;;;2.00;1.60;;;;;;;17.91;100.00;95552.69;6278667;22;20844;-88
2023/08/28 00:55:45;;;;;;;3.50;1.70;;;;;;;17.94;100.00;95557.44;6278168;22;20246;-86
2023/08/28 00:58:13;;;;;;;1.45;1.35;;;;;;;17.93;100.00;95537.63;6277866;22;20559;-85
2023/08/28 01:00:41;;;;;;;1.70;1.58;;;;;;;17.94;100.00;95529.59;6277397;22;20190;-86
2023/08/28 01:03:09;;;;;;;1.80;1.40;;;;;;;17.93;100.00;95532.41;6276827;22;20241;-87
2023/08/28 01:05:47;;;;;;;2.33;1.70;;;;;;;17.89;100.00;95542.50;6277023;22;20176;-86
2023/08/28 01:08:24;;;;;;;1.60;1.50;;;;;;;17.86;100.00;95544.75;6278416;22;20188;-87
2023/08/28 01:10:55;;;;;;;2.75;1.50;;;;;;;17.87;100.00;95536.72;6278630;22;20164;-87
2023/08/28 01:13:31;;;;;;;1.58;1.48;;;;;;;17.86;100.00;95524.72;6278712;22;20165;-87
2023/08/28 01:15:59;;;;;;;2.20;1.83;;;;;;;17.82;100.00;95535.78;6278566;22;20236;-87
2023/08/28 01:18:26;;;;;;;2.65;1.67;;;;;;;17.75;100.00;95556.72;6277861;22;20216;-87
2023/08/28 01:20:53;;;;;;;1.95;1.52;;;;;;;17.74;100.00;95544.69;6278117;22;20183;-86
2023/08/28 01:23:27;;;;;;;1.80;1.70;;;;;;;17.73;100.00;95545.72;6277807;22;20263;-87
2023/08/28 01:25:56;;;;;;;2.00;1.70;;;;;;;17.74;100.00;95546.50;6277999;22;20160;-87
2023/08/28 01:28:25;;;;;;;1.55;1.45;;;;;;;17.69;100.00;95565.44;6278520;22;20196;-86
2023/08/28 01:30:53;;;;;;;1.73;1.63;;;;;;;17.72;100.00;95549.34;6278658;22;20478;-86
2023/08/28 01:33:19;;;;;;;2.38;1.92;;;;;;;17.63;100.00;95542.84;6277520;22;20259;-87
2023/08/28 01:35:51;;;;;;;1.58;1.48;;;;;;;17.61;100.00;95560.47;6277545;22;20187;-87
2023/08/28 01:38:26;;;;;;;1.80;1.58;;;;;;;17.63;100.00;95540.22;6275829;22;20206;-87
2023/08/28 01:40:58;;;;;;;1.83;1.63;;;;;;;17.69;100.00;95549.81;6276481;22;20163;-86
2023/08/28 01:43:28;;;;;;;2.55;1.75;;;;;;;17.70;100.00;95543.56;6277082;22;20542;-87
2023/08/28 01:45:55;;;;;;;2.20;1.92;;;;;;;17.59;100.00;95549.50;6276806;22;20163;-88
2023/08/28 01:48:22;;;;;;;2.15;1.77;;;;;;;17.56;100.00;95568.16;6277545;22;20860;-86
2023/08/28 01:50:48;;;;;;;2.80;2.05;;;;;;;17.50;100.00;95575.06;6276673;22;20180;-87
2023/08/28 01:53:15;;;;;;;2.03;1.60;;;;;;;17.56;100.00;95574.16;6277396;22;20172;-87
2023/08/28 01:56:19;;;;;;;2.72;1.60;;;;;;;17.63;100.00;95563.66;6275575;22;20172;-88
2023/08/28 01:58:48;;;;;;;2.00;1.90;;;;;;;17.57;100.00;95569.75;6228936;22;20196;-86
2023/08/28 02:01:14;;;;;;;2.45;1.70;;;;;;;17.54;100.00;95557.16;6277607;22;20176;-86
2023/08/28 02:03:41;;;;;;;2.83;1.88;;;;;;;17.50;100.00;95567.25;6277191;22;20183;-85
2023/08/28 02:06:08;;;;;;;2.45;1.88;;;;;;;17.59;100.00;95567.72;6276159;22;20184;-85
2023/08/28 02:08:34;;;;;;;2.20;2.00;;;;;;;17.67;100.00;95561.44;6275916;22;20203;-82
2023/08/28 02:11:01;;;;;;;2.08;1.77;;;;;;;17.77;100.00;95549.47;6275897;22;20171;-84
2023/08/28 02:13:29;;;;;;;2.03;1.70;;;;;;;17.83;100.00;95526.97;6277557;22;20187;-85
2023/08/28 02:15:55;;;;;;;1.90;1.70;;;;;;;17.84;100.00;95510.31;6276651;22;20230;-86
2023/08/28 02:18:22;;;;;;;1.90;1.80;;;;;;;17.83;100.00;95503.53;6277372;22;20193;-85
2023/08/28 02:20:49;;;;;;;2.20;1.95;;;;;;;17.77;100.00;95504.41;6277230;22;20202;-83
2023/08/28 02:23:16;;;;;;;2.13;1.92;;;;;;;17.67;100.00;95507.56;6276775;22;20221;-87
2023/08/28 02:25:43;;;;;;;2.05;1.80;;;;;;;17.55;100.00;95525.69;6276807;22;20172;-84
2023/08/28 02:28:10;;;;;;;2.53;2.17;;;;;;;17.51;100.00;95531.59;6275946;22;20554;-87
2023/08/28 02:30:37;;;;;;;2.80;1.88;;;;;;;17.54;100.00;95529.31;6276702;22;20172;-86
2023/08/28 02:33:04;;;;;;;2.13;2.00;;;;;;;17.55;100.00;95514.50;6278483;22;20182;-86
2023/08/28 02:35:31;;;;;;;2.35;2.15;;;;;;;17.51;100.00;95493.31;6278982;22;20183;-87
2023/08/28 02:37:58;;;;;;;2.35;1.90;;;;;;;17.54;100.00;95492.88;6277926;22;20211;-87
2023/08/28 02:40:24;;;;;;;2.88;1.70;;;;;;;17.47;100.00;95488.78;6276251;22;20238;-85
2023/08/28 02:42:51;;;;;;;3.35;1.88;;;;;;;17.55;100.00;95486.66;6275198;22;20215;-85
2023/08/28 02:45:17;;;;;;;2.45;1.65;;;;;;;17.56;100.00;95475.22;6277083;22;20187;-86
2023/08/28 02:47:45;;;;;;;2.03;1.90;;;;;;;17.53;100.00;95462.66;6276619;22;20203;-86
2023/08/28 02:50:12;;;;;;;2.00;1.80;;;;;;;17.52;100.00;95466.25;6276887;22;20175;-87
2023/08/28 02:52:38;;;;;;;4.78;2.00;;;;;;;17.54;100.00;95471.25;6276006;22;20191;-86
2023/08/28 02:55:05;;;;;;;1.95;1.73;;;;;;;17.59;100.00;95479.19;6276471;22;20175;-87
2023/08/28 02:57:32;;;;;;;2.45;2.25;;;;;;;17.55;100.00;95473.63;6276006;22;20250;-87
2023/08/28 02:59:58;;;;;;;3.10;1.95;;;;;;;17.60;100.00;95476.38;6276435;22;20200;-87
2023/08/28 03:02:25;;;;;;;3.08;2.10;;;;;;;17.64;100.00;95468.94;6276718;22;20180;-85
2023/08/28 03:04:52;;;;;;;1.98;1.77;;;;;;;17.65;100.00;95469.75;6276523;22;20541;-87
2023/08/28 03:07:19;;;;;;;2.28;2.08;;;;;;;17.63;100.00;95467.31;6277289;22;20249;-87
2023/08/28 03:09:45;;;;;;;2.60;2.17;;;;;;;17.64;100.00;95468.13;6276960;22;20183;-87
2023/08/28 03:12:12;;;;;;;2.40;1.80;;;;;;;17.65;100.00;95467.13;6277865;22;20539;-85
2023/08/28 03:14:38;;;;;;;3.35;2.28;;;;;;;17.64;100.00;95466.34;6276318;22;20187;-86
2023/08/28 03:17:05;;;;;;;3.17;2.08;;;;;;;17.69;100.00;95471.69;6275762;22;20219;-86
2023/08/28 03:19:31;;;;;;;2.17;2.00;;;;;;;17.61;100.00;95469.34;6276191;22;20196;-87
2023/08/28 03:21:59;;;;;;;2.20;2.00;;;;;;;17.54;100.00;95468.66;6276048;22;20651;-86
2023/08/28 03:24:25;;;;;;;2.47;2.10;;;;;;;17.29;100.00;95474.00;6275577;22;20177;-86
2023/08/28 03:26:52;;;;;;;2.30;1.70;;;;;;;17.35;100.00;95477.53;6275049;22;20172;-87
2023/08/28 03:29:18;;;;;;;2.22;1.77;;;;;;;17.27;100.00;95473.44;6275716;22;20172;-87
2023/08/28 03:31:45;;;;;;;2.13;1.92;;;;;;;17.22;100.00;95470.69;6274563;22;20179;-87
2023/08/28 03:34:11;;;;;;;2.30;2.08;;;;;;;17.21;100.00;95467.31;6275311;22;20172;-85
2023/08/28 03:36:37;;;;;;;1.90;1.80;;;;;;;17.15;100.00;95467.38;6273940;22;20694;-84
2023/08/28 03:39:05;;;;;;;2.10;1.90;;;;;;;17.15;100.00;95475.97;6273818;22;20176;-85
2023/08/28 03:41:32;;;;;;;2.45;1.80;;;;;;;17.06;100.00;95477.31;6273856;22;20168;-85
2023/08/28 03:43:58;;;;;;;2.00;1.80;;;;;;;17.04;100.00;95470.72;6273637;22;20180;-86
2023/08/28 03:46:25;;;;;;;2.45;1.75;;;;;;;16.89;100.00;95461.50;6273709;22;20172;-86
2023/08/28 03:48:51;;;;;;;2.40;2.17;;;;;;;16.75;100.00;95480.84;6273460;22;20204;-85
2023/08/28 03:51:18;;;;;;;1.85;1.70;;;;;;;16.67;100.00;95477.75;6274387;22;20684;-86
2023/08/28 03:53:44;;;;;;;2.03;1.83;;;;;;;16.65;100.00;95477.97;6274215;22;20636;-85
2023/08/28 03:56:12;;;;;;;2.60;2.10;;;;;;;16.69;100.00;95476.53;6274924;22;20176;-86
2023/08/28 03:58:38;;;;;;;2.45;1.75;;;;;;;16.74;100.00;95484.47;6274880;22;20206;-86
2023/08/28 04:01:05;;;;;;;2.35;1.80;;;;;;;16.84;100.00;95484.78;6275874;22;20531;-85
2023/08/28 04:03:31;;;;;;;2.55;1.90;;;;;;;17.01;100.00;95464.16;6275877;22;20172;-87
2023/08/28 04:05:58;;;;;;;3.03;2.10;;;;;;;16.93;100.00;95439.22;6275511;22;20180;-85
2023/08/28 04:08:25;;;;;;;2.83;1.90;;;;;;;16.89;100.00;95458.91;6275296;22;20687;-85
2023/08/28 04:10:52;;;;;;;2.20;1.80;;;;;;;16.97;100.00;95462.19;6274720;22;20172;-86
2023/08/28 04:13:20;;;;;;;2.60;2.40;;;;;;;16.91;100.00;95446.47;6275896;22;20204;-86
2023/08/28 04:15:46;;;;;;;2.35;2.13;;;;;;;16.89;100.00;95445.91;6275124;22;20176;-85
2023/08/28 04:18:13;;;;;;;2.25;1.85;;;;;;;16.78;100.00;95449.22;6275514;22;20508;-86
2023/08/28 04:20:40;;;;;;;2.45;2.13;;;;;;;16.87;100.00;95453.13;6275598;22;20218;-86
2023/08/28 04:23:07;;;;;;;1.92;1.80;;;;;;;16.89;100.00;95422.50;6274935;22;20195;-85
2023/08/28 04:25:33;;;;;;;2.42;2.15;;;;;;;16.91;100.00;95406.69;6275106;22;20202;-86
2023/08/28 04:28:00;;;;;;;3.13;2.17;;;;;;;16.96;100.00;95408.59;6274891;22;20189;-87
2023/08/28 04:30:27;;;;;;;2.53;2.03;;;;;;;16.83;100.00;95415.56;6275884;22;20179;-86
2023/08/28 04:32:54;;;;;;;2.25;2.05;;;;;;;16.73;100.00;95404.13;6274985;22;20180;-86
2023/08/28 04:35:20;;;;;;;2.13;1.90;;;;;;;16.82;100.00;95416.56;6274381;22;20171;-86
2023/08/28 04:37:47;;;;;;;2.30;2.10;;;;;;;16.87;100.00;95427.13;6274171;22;20196;-86
2023/08/28 04:40:13;;;;;;;2.65;2.40;;;;;;;16.93;100.00;95415.81;6274750;22;20192;-87
2023/08/28 04:42:39;;;;;;;2.83;2.22;;;;;;;16.88;100.00;95422.72;6275578;22;20179;-87
2023/08/28 04:45:07;;;;;;;3.30;2.40;;;;;;;16.82;100.00;95426.97;6274056;22;20176;-84
2023/08/28 04:47:34;;;;;;;2.38;2.17;;;;;;;17.25;100.00;95447.63;6274109;22;20195;-83
2023/08/28 04:50:01;;;;;;;2.42;2.20;;;;;;;17.53;100.00;95423.59;6274530;22;20168;-84
2023/08/28 04:52:27;;;;;;;2.10;1.90;;;;;;;17.73;100.00;95389.47;6273646;22;20176;-83
2023/08/28 04:54:54;;;;;;;2.45;1.92;;;;;;;18.02;100.00;95363.53;6273509;22;20226;-85
2023/08/28 04:57:19;;;;;;;2.50;2.30;;;;;;;18.11;98.61;95307.44;6273709;22;20200;-83
2023/08/28 04:59:46;;;;;;;2.95;2.15;;;;;;;18.21;99.04;95308.44;6274760;22;20199;-84
2023/08/28 05:02:13;;;;;;;3.78;2.95;;;;;;;18.18;95.38;95259.41;6273962;22;20180;-82
2023/08/28 05:04:40;;;;;;;3.65;2.63;;;;;;;18.17;97.31;95276.06;6272767;22;20214;-83
2023/08/28 05:07:07;;;;;;;2.85;2.60;;;;;;;18.26;97.45;95284.31;6273022;22;20214;-82
2023/08/28 05:09:34;;;;;;;3.67;2.25;;;;;;;18.40;97.48;95284.81;6272778;22;20232;-83
2023/08/28 05:12:00;;;;;;;2.40;2.20;;;;;;;18.54;94.93;95260.06;6273240;22;20183;-82
2023/08/28 05:14:26;;;;;;;2.50;2.30;;;;;;;18.55;93.68;95236.34;6273031;22;20191;-84
2023/08/28 05:16:53;;;;;;;2.60;2.40;;;;;;;18.59;93.13;95227.06;6272895;22;20173;-84
2023/08/28 05:19:19;;;;;;;3.95;2.35;;;;;;;18.72;92.98;95215.53;6273742;22;20176;-83
2023/08/28 05:21:47;;;;;;;2.97;2.40;;;;;;;18.87;91.95;95192.31;6273619;22;20196;-83
2023/08/28 05:24:13;;;;;;;3.28;2.35;;;;;;;18.97;91.10;95161.16;6272189;22;20176;-84
2023/08/28 05:26:40;;;;;;;2.63;2.42;;;;;;;19.03;90.57;95142.97;6272917;22;20172;-84
2023/08/28 05:29:06;;;;;;;3.40;3.10;;;;;;;18.94;89.22;95130.31;6273258;22;20176;-84
2023/08/28 05:31:33;;;;;;;3.08;2.50;;;;;;;18.78;89.21;95136.34;6273134;22;20172;-84
2023/08/28 05:33:59;;;;;;;3.00;2.70;;;;;;;18.63;90.49;95142.13;6273492;22;20180;-86
2023/08/28 05:36:26;;;;;;;3.60;3.30;;;;;;;18.13;91.01;95139.44;6273184;22;20172;-86
2023/08/28 05:38:54;;;;;;;3.70;3.30;;;;;;;18.02;93.21;95170.75;6272734;22;20679;-85
2023/08/28 05:41:20;;;;;;;4.72;4.28;;;;;;;17.68;94.19;95182.88;6272440;22;20195;-87
2023/08/28 05:43:47;;;;;;;5.43;4.43;;;;;;;17.46;98.42;95243.31;6272562;22;20176;-87
2023/08/28 05:46:13;;;;;;;4.30;4.00;;;;;;;17.39;99.56;95260.06;6271427;22;20182;-87
2023/08/28 05:48:39;;;;;;;8.73;5.05;;;;;;;17.23;100.00;95280.53;6271482;22;20199;-85
2023/08/28 05:51:06;;;;;;;4.68;3.97;;;;;;;17.27;100.00;95270.47;6271381;22;20180;-87
2023/08/28 05:53:32;;;;;;;5.60;3.78;;;;;;;17.30;100.00;95238.00;6272195;22;20680;-85
2023/08/28 05:56:00;;;;;;;4.30;3.90;;;;;;;17.17;100.00;95208.56;6270623;22;20176;-87
2023/08/28 05:58:27;;;;;;;4.00;3.70;;;;;;;17.12;100.00;95190.28;6272219;22;20200;-87
2023/08/28 06:00:53;;;;;;;3.70;3.40;;;;;;;16.98;100.00;95190.69;6272651;22;20224;-87
2023/08/28 06:03:19;;;;;;;3.67;3.38;;;;;;;16.91;100.00;95212.44;6273341;22;20176;-87
2023/08/28 06:05:46;;;;;;;4.50;3.65;;;;;;;16.81;100.00;95227.78;6273102;22;20547;-88
2023/08/28 06:08:12;;;;;;;3.80;3.22;;;;;;;16.79;100.00;95252.41;6272811;22;20250;-85
2023/08/28 06:10:40;;;;;;;6.15;4.72;;;;;;;16.72;100.00;95270.72;6273331;22;20235;-86
2023/08/28 06:13:08;;;;;;;4.10;3.70;;;;;;;16.68;100.00;95286.97;6272955;22;20214;-87
2023/08/28 06:15:34;;;;;;;4.20;3.80;;;;;;;16.71;100.00;95281.34;6274730;22;20481;-86
2023/08/28 06:18:01;;;;;;;5.13;4.63;;;;;;;16.67;100.00;95288.78;6274193;22;20668;-85
2023/08/28 06:20:27;;;;;;;4.07;3.67;;;;;;;16.64;100.00;95311.81;6273423;22;20199;-86
2023/08/28 06:22:53;;;;;;;4.60;4.20;;;;;;;16.62;100.00;95322.41;6273945;22;20678;-86
2023/08/28 06:25:20;;;;;;;4.30;3.90;;;;;;;16.72;100.00;95308.94;6272907;22;20180;-86
2023/08/28 06:27:47;;;;;;;4.45;4.03;;;;;;;16.72;100.00;95301.91;6273598;22;20192;-88
2023/08/28 06:30:15;;;;;;;4.28;3.97;;;;;;;16.70;100.00;95288.34;6271528;22;20179;-86
2023/08/28 06:32:41;;;;;;;3.90;3.60;;;;;;;16.66;100.00;95297.59;6274490;22;20172;-86
2023/08/28 06:35:08;;;;;;;3.35;3.13;;;;;;;16.43;100.00;95311.25;6273855;22;20176;-86
2023/08/28 06:37:35;;;;;;;3.47;3.17;;;;;;;16.39;100.00;95317.09;6271558;22;20211;-86
2023/08/28 06:40:03;;;;;;;3.80;3.50;;;;;;;16.40;100.00;95355.06;6270827;22;20183;-86
2023/08/28 06:42:29;;;;;;;4.20;3.80;;;;;;;16.49;100.00;95340.78;6271543;22;20168;-86
2023/08/28 06:44:56;;;;;;;4.25;3.85;;;;;;;16.50;100.00;95347.56;6270175;22;20183;-86
2023/08/28 06:47:24;;;;;;;4.10;3.80;;;;;;;16.61;100.00;95339.03;6271489;22;20199;-86
2023/08/28 06:49:50;;;;;;;4.10;3.58;;;;;;;16.68;100.00;95318.19;6271940;22;20183;-86
2023/08/28 06:52:17;;;;;;;3.58;3.30;;;;;;;16.64;100.00;95294.41;6272072;22;20172;-86
2023/08/28 06:54:43;;;;;;;3.50;3.20;;;;;;;16.54;100.00;95294.94;6271590;22;20173;-86
2023/08/28 06:57:10;;;;;;;3.72;3.35;;;;;;;16.50;100.00;95298.97;6270494;22;20206;-86
2023/08/28 06:59:36;;;;;;;3.30;3.00;;;;;;;16.31;100.00;95284.44;6271577;22;20176;-87
2023/08/28 07:02:02;;;;;;;2.85;2.65;;;;;;;16.39;100.00;95298.91;6270923;22;20203;-85
2023/08/28 07:04:30;;;;;;;4.55;3.10;;;;;;;16.40;100.00;95309.09;6271447;22;20516;-87
2023/08/28 07:06:57;;;;;;;3.38;2.80;;;;;;;16.29;100.00;95320.22;6271856;22;20184;-86
2023/08/28 07:09:24;;;;;;;4.20;2.65;;;;;;;16.31;100.00;95340.81;6272920;22;20499;-85
2023/08/28 07:11:50;;;;;;;3.00;2.80;;;;;;;16.39;100.00;95327.50;6272997;22;20247;-85
2023/08/28 07:14:16;;;;;;;2.92;2.60;;;;;;;16.50;100.00;95309.38;6273049;22;20176;-86
2023/08/28 07:16:43;;;;;;;4.75;3.60;;;;;;;16.45;100.00;95309.22;6272033;22;20183;-86
2023/08/28 07:19:09;;;;;;;3.17;2.88;;;;;;;16.48;100.00;95311.41;6272884;22;20183;-86
2023/08/28 07:21:37;;;;;;;3.42;2.78;;;;;;;16.52;100.00;95304.75;6273598;22;20196;-86
2023/08/28 07:24:04;;;;;;;2.42;2.22;;;;;;;16.40;100.00;95287.50;6272836;22;20515;-86
2023/08/28 07:26:30;;;;;;;2.47;2.28;;;;;;;16.31;100.00;95301.84;6274619;22;20183;-86
2023/08/28 07:28:57;;;;;;;2.63;2.42;;;;;;;16.23;100.00;95311.50;6275004;22;20687;-87
2023/08/28 07:31:23;;;;;;;3.03;2.55;;;;;;;16.24;100.00;95314.88;6277858;22;20172;-86
2023/08/28 07:33:50;;;;;;;4.57;2.63;;;;;;;16.34;100.00;95302.19;6277241;22;20199;-85
2023/08/28 07:36:21;;;;;;;3.67;2.65;;;;;;;16.39;100.00;95281.53;6276746;22;20176;-85
2023/08/28 07:38:49;;;;;;;2.47;2.28;;;;;;;16.47;100.00;95273.44;6277182;22;20618;-86
2023/08/28 07:41:16;;;;;;;2.67;2.42;;;;;;;16.39;100.00;95265.94;6276950;22;20226;-86
2023/08/28 07:43:44;;;;;;;2.20;2.10;;;;;;;16.39;100.00;95249.53;6277146;22;20639;-87
2023/08/28 07:46:10;;;;;;;3.97;2.25;;;;;;;16.42;100.00;95236.91;6276937;22;20179;-87
2023/08/28 07:48:37;;;;;;;2.60;2.28;;;;;;;16.37;100.00;95272.34;6277340;22;20207;-87
2023/08/28 07:51:03;;;;;;;1.90;1.80;;;;;;;16.29;100.00;95289.06;6275653;22;20172;-87
2023/08/28 07:53:32;;;;;;;3.00;1.90;;;;;;;16.19;100.00;95302.53;6276503;22;20183;-86
2023/08/28 07:56:01;;;;;;;2.00;1.90;;;;;;;16.19;100.00;95319.94;6276943;22;20256;-86
2023/08/28 07:58:27;;;;;;;2.53;2.33;;;;;;;16.18;100.00;95332.13;6278004;22;20204;-87
2023/08/28 08:00:53;;;;;;;2.53;2.10;;;;;;;16.25;100.00;95326.88;6277529;22;20199;-85
2023/08/28 08:03:20;;;;;;;3.00;2.10;;;;;;;16.29;100.00;95345.41;6278059;22;20172;-86
2023/08/28 08:05:47;;;;;;;3.38;2.20;;;;;;;16.24;100.00;95353.84;6276470;22;20230;-83
2023/08/28 08:08:13;;;;;;;2.75;2.08;;;;;;;16.25;100.00;95342.47;6272409;22;20288;-84
2023/08/28 08:10:40;;;;;;;2.53;2.20;;;;;;;16.16;100.00;95344.53;6273332;22;20187;-85
2023/08/28 08:13:07;;;;;;;3.20;2.05;;;;;;;16.10;100.00;95355.03;6272663;22;20632;-86
2023/08/28 08:15:37;;;;;;;2.25;2.05;;;;;;;16.06;100.00;95353.84;6272783;22;20176;-85
2023/08/28 08:18:04;;;;;;;1.80;1.70;;;;;;;16.02;100.00;95370.88;6273167;22;20200;-88
2023/08/28 08:20:31;;;;;;;2.20;2.00;;;;;;;16.04;100.00;95379.25;6272272;22;20754;-85
2023/08/28 08:22:57;;;;;;;2.03;1.90;;;;;;;16.11;100.00;95382.59;6271921;22;20211;-84
2023/08/28 08:25:24;;;;;;;1.90;1.80;;;;;;;16.08;100.00;95383.81;6272890;22;20176;-84
2023/08/28 08:27:50;;;;;;;2.13;1.90;;;;;;;16.01;100.00;95397.84;6272142;22;20200;-86
2023/08/28 08:30:19;;;;;;;2.47;2.00;;;;;;;16.17;100.00;95420.66;6272427;22;20172;-86
2023/08/28 08:32:46;;;;;;;2.40;2.20;;;;;;;16.14;100.00;95395.94;6272747;22;20235;-86
2023/08/28 08:35:12;;;;;;;2.20;2.00;;;;;;;16.18;100.00;95415.25;6272788;22;20176;-86
2023/08/28 08:37:39;;;;;;;3.03;2.50;;;;;;;16.21;100.00;95383.66;6271289;22;20235;-86
2023/08/28 08:40:13;;;;;;;2.88;2.45;;;;;;;16.26;100.00;95390.00;6272830;22;20176;-85
2023/08/28 08:42:39;;;;;;;2.38;2.17;;;;;;;16.33;100.00;95395.94;6272268;22;20180;-85
2023/08/28 08:45:07;;;;;;;2.55;2.35;;;;;;;16.26;100.00;95390.81;6272116;22;20206;-86
2023/08/28 08:47:36;;;;;;;3.67;2.80;;;;;;;16.15;100.00;95394.13;6272386;22;20200;-86
2023/08/28 08:50:06;;;;;;;2.85;2.35;;;;;;;16.15;100.00;95407.91;6272533;22;20176;-86
2023/08/28 08:52:35;;;;;;;4.00;2.42;;;;;;;16.17;100.00;95420.66;6271830;22;20686;-88
2023/08/28 08:55:12;;;;;;;4.13;2.70;;;;;;;16.22;100.00;95423.41;6271425;22;20208;-85
2023/08/28 08:57:43;;;;;;;2.53;2.33;;;;;;;16.27;100.00;95420.97;6270477;22;20200;-85
2023/08/28 09:00:13;;;;;;;2.08;1.95;;;;;;;16.17;100.00;95399.88;6272463;22;20247;-85
2023/08/28 09:02:42;;;;;;;2.72;2.25;;;;;;;16.21;100.00;95420.03;6271584;22;20176;-85
2023/08/28 09:05:10;;;;;;;2.60;2.40;;;;;;;16.36;100.00;95396.28;6272170;22;20176;-85
2023/08/28 09:07:37;;;;;;;2.60;2.40;;;;;;;16.49;100.00;95375.38;6272799;22;20203;-85
2023/08/28 09:10:04;;;;;;;3.05;2.38;;;;;;;16.62;100.00;95335.41;6272383;22;20188;-85
2023/08/28 09:12:30;;;;;;;3.47;2.38;;;;;;;16.74;100.00;95283.50;6271919;22;20168;-86
2023/08/28 09:14:57;;;;;;;2.28;2.10;;;;;;;16.70;100.00;95230.34;6272059;22;20180;-86
2023/08/28 09:17:25;;;;;;;2.58;2.30;;;;;;;16.43;100.00;95183.94;6272273;22;20196;-86
2023/08/28 09:19:53;;;;;;;2.67;2.15;;;;;;;16.46;100.00;95180.88;6271574;22;20179;-86
2023/08/28 09:22:21;;;;;;;54.63;49.00;;;;;;;16.46;100.00;95165.28;6271949;22;20224;-86
2023/08/28 09:24:51;;;;;;;4.68;4.28;;;;;;;16.39;100.00;95169.00;6271617;22;20184;-86
2023/08/28 09:27:19;;;;;;;2.55;2.33;;;;;;;16.48;100.00;95202.25;6270925;22;20683;-84
2023/08/28 09:29:46;;;;;;;2.83;2.60;;;;;;;16.52;100.00;95247.56;6271343;22;20184;-85
2023/08/28 09:32:13;;;;;;;2.15;1.95;;;;;;;16.43;100.00;95237.69;6271823;22;20254;-83
2023/08/28 09:34:41;;;;;;;2.72;2.28;;;;;;;16.48;100.00;95251.63;6271551;22;20259;-85
2023/08/28 09:37:12;;;;;;;2.10;1.90;;;;;;;16.63;100.00;95240.03;6271700;22;20279;-84
2023/08/28 09:39:39;;;;;;;1.90;1.80;;;;;;;16.71;100.00;95240.53;6271504;22;20176;-84
2023/08/28 09:42:06;;;;;;;1.70;1.60;;;;;;;16.71;100.00;95211.94;6270947;22;20200;-84
2023/08/28 09:44:34;;;;;;;1.80;1.60;;;;;;;16.72;100.00;95208.31;6272004;22;20195;-84
2023/08/28 09:47:01;;;;;;;2.03;1.83;;;;;;;16.74;100.00;95201.06;6271055;22;20639;-84
2023/08/28 09:49:27;;;;;;;2.20;2.10;;;;;;;16.65;100.00;95193.84;6272387;22;20180;-85
2023/08/28 09:51:54;;;;;;;2.88;1.73;;;;;;;16.57;100.00;95211.28;6272368;22;20175;-84
2023/08/28 09:54:24;;;;;;;4.50;4.10;;;;;;;16.64;100.00;95216.44;6272213;22;20179;-84
2023/08/28 09:56:50;;;;;;;10.23;9.23;;;;;;;16.63;100.00;95214.84;6270417;22;20184;-84
2023/08/28 09:59:17;;;;;;;9.98;9.05;;;;;;;16.70;100.00;95210.34;6271804;22;20210;-84
2023/08/28 10:01:45;;;;;;;3.95;3.55;;;;;;;16.72;100.00;95197.13;6271854;22;20574;-84
2023/08/28 10:04:13;;;;;;;3.58;3.28;;;;;;;16.82;100.00;95220.75;6272346;22;20172;-86
2023/08/28 10:06:49;;;;;;;2.60;2.40;;;;;;;16.91;100.00;95227.22;6272060;22;20184;-84
2023/08/28 10:09:19;;;;;;;2.30;2.10;;;;;;;17.04;100.00;95231.41;6271335;22;20160;-87
2023/08/28 10:11:50;;;;;;;2.30;2.10;;;;;;;17.07;100.00;95182.34;6272103;22;20156;-85
2023/08/28 10:14:18;;;;;;;2.40;2.20;;;;;;;17.17;100.00;95177.34;6271435;22;20607;-86
2023/08/28 10:16:48;;;;;;;2.15;2.05;;;;;;;17.30;100.00;95178.94;6272154;22;20180;-85
2023/08/28 10:19:20;;;;;;;2.30;2.10;;;;;;;17.42;100.00;95166.69;6273327;22;20639;-85
2023/08/28 10:21:48;;;;;;;2.20;2.00;;;;;;;17.24;100.00;95169.44;6271996;22;20187;-86
2023/08/28 10:24:17;;;;;;;2.45;2.25;;;;;;;17.26;100.00;95185.63;6272187;22;20183;-84
2023/08/28 10:26:44;;;;;;;2.42;2.22;;;;;;;17.27;100.00;95189.81;6272216;22;20180;-86
2023/08/28 10:29:15;;;;;;;2.58;2.38;;;;;;;17.30;100.00;95189.34;6272241;22;20203;-85
2023/08/28 10:31:42;;;;;;;3.05;2.50;;;;;;;17.24;100.00;95205.88;6271404;22;20156;-84
2023/08/28 10:34:10;;;;;;;7.68;6.55;;;;;;;17.45;100.00;95181.06;6271846;22;20172;-84
2023/08/28 10:36:37;;;;;;;6.32;5.72;;;;;;;17.72;100.00;95163.94;6271481;22;20180;-84
2023/08/28 10:39:05;;;;;;;13.98;11.75;;;;;;;17.87;100.00;95142.63;6271755;22;20200;-84
2023/08/28 10:41:32;;;;;;;11.68;10.60;;;;;;;17.95;100.00;95144.84;6272035;22;20250;-84
2023/08/28 10:44:02;;;;;;;3.13;2.03;;;;;;;17.75;100.00;95149.66;6272096;22;20203;-85
2023/08/28 10:46:31;;;;;;;1.92;1.65;;;;;;;17.58;100.00;95126.16;6271089;22;20166;-84
2023/08/28 10:48:58;;;;;;;3.25;1.75;;;;;;;17.50;100.00;95119.50;6271532;22;20192;-83
2023/08/28 10:51:31;;;;;;;11.27;4.75;;;;;;;17.56;100.00;95156.81;6271828;22;20176;-85
2023/08/28 10:54:01;;;;;;;7.53;4.28;;;;;;;17.51;100.00;95154.13;6272564;22;20160;-84
2023/08/28 10:56:32;;;;;;;6.13;2.60;;;;;;;17.65;100.00;95139.84;6270957;22;20172;-84
2023/08/28 10:59:24;;;;;;;3.05;2.60;;;;;;;17.65;100.00;95110.44;6273616;22;20683;-84
2023/08/28 11:01:57;;;;;;;3.50;2.20;;;;;;;17.77;100.00;95104.16;6275057;22;20184;-84
2023/08/28 11:04:24;;;;;;;2.25;1.45;;;;;;;17.58;98.41;95029.81;6275400;22;20207;-84
2023/08/28 11:06:51;;;;;;;2.20;1.95;;;;;;;17.73;100.00;95039.75;6274456;22;20175;-84
2023/08/28 11:09:38;;;;;;;1.60;1.50;;;;;;;17.92;100.00;95033.28;6275538;22;20222;-84
2023/08/28 11:12:26;;;;;;;1.60;1.50;;;;;;;17.93;99.27;95017.44;6273699;22;20179;-85
2023/08/28 11:15:06;;;;;;;2.05;1.70;;;;;;;18.01;100.00;95065.75;6274415;22;20176;-84
2023/08/28 11:17:34;;;;;;;1.38;1.27;;;;;;;18.03;100.00;95026.44;6274225;22;20195;-84
2023/08/28 11:20:04;;;;;;;1.95;1.65;;;;;;;17.95;100.00;95046.66;6273696;22;20207;-85
2023/08/28 11:22:32;;;;;;;1.30;1.15;;;;;;;17.89;100.00;95028.59;6274641;22;20199;-85
2023/08/28 11:24:59;;;;;;;1.17;1.08;;;;;;;17.70;94.56;94943.91;6275090;22;20180;-84
2023/08/28 11:27:33;;;;;;;1.95;1.42;;;;;;;17.68;97.66;94977.97;6277189;22;20526;-85
2023/08/28 11:30:05;;;;;;;1.10;1.05;;;;;;;17.60;96.36;94967.91;6276893;22;20244;-84